Time;durP1;ratioP1;P1;durP2;ratioP2;P2;SDS_P1;SDS_P2;PMS_P1;PMS_P2;Temp;Humidity;BMP_temperature;BMP_pressure;BME280_temperature;BME280_humidity;BME280_pressure;Samples;Min_cycle;Max_cycle;Signal;HPM_P1;HPM_P2
2022/04/11 00:01:10;;;;;;;5.90;4.47;;;;;;;1.76;84.89;95874.38;6129023;23;20151;-82
2022/04/11 00:03:35;;;;;;;9.27;4.60;;;;;;;1.76;84.65;95874.38;6128957;23;20155;-82
2022/04/11 00:06:01;;;;;;;5.50;4.70;;;;;;;1.80;84.18;95870.75;6128603;23;20234;-83
2022/04/11 00:08:26;;;;;;;7.53;4.87;;;;;;;1.82;84.30;95863.78;6128858;23;20155;-82
2022/04/11 00:10:51;;;;;;;10.53;5.20;;;;;;;1.79;84.09;95874.22;6128604;23;20159;-84
2022/04/11 00:13:16;;;;;;;5.30;4.77;;;;;;;1.78;84.07;95865.72;6128205;23;20566;-82
2022/04/11 00:15:42;;;;;;;12.73;5.47;;;;;;;1.74;83.85;95871.06;6154887;23;20144;-83
2022/04/11 00:18:07;;;;;;;6.57;5.20;;;;;;;1.76;84.47;95875.19;6128616;23;20186;-84
2022/04/11 00:20:33;;;;;;;9.90;4.90;;;;;;;1.81;84.23;95864.72;6154527;23;20159;-83
2022/04/11 00:22:58;;;;;;;7.50;4.77;;;;;;;1.74;84.26;95860.84;6104909;23;20155;-81
2022/04/11 00:25:24;;;;;;;9.57;5.47;;;;;;;1.81;84.14;95868.09;6131054;23;20210;-84
2022/04/11 00:27:49;;;;;;;6.17;4.60;;;;;;;1.86;83.79;95855.88;6132189;23;20597;-83
2022/04/11 00:30:14;;;;;;;7.93;4.97;;;;;;;1.84;83.65;95852.53;6157869;23;20170;-83
2022/04/11 00:32:41;;;;;;;8.13;5.70;;;;;;;1.87;83.39;95852.38;6130802;23;20190;-83
2022/04/11 00:35:08;;;;;;;8.57;4.83;;;;;;;1.88;83.02;95848.09;6130762;23;20676;-84
2022/04/11 00:37:33;;;;;;;6.90;4.43;;;;;;;1.22;85.48;95844.06;6156010;23;20179;-84
2022/04/11 00:39:58;;;;;;;7.27;4.87;;;;;;;1.05;86.50;95836.47;6129930;23;20158;-81
2022/04/11 00:42:26;;;;;;;7.30;5.03;;;;;;;0.81;88.15;95836.09;6128980;23;20617;-83
2022/04/11 00:44:52;;;;;;;8.00;5.17;;;;;;;0.84;88.79;95835.91;6154869;23;20194;-83
2022/04/11 00:47:17;;;;;;;8.37;5.07;;;;;;;0.78;88.25;95834.50;6129912;23;20191;-83
2022/04/11 00:49:42;;;;;;;7.47;4.87;;;;;;;0.82;87.97;95830.06;6129827;23;20178;-82
2022/04/11 00:52:08;;;;;;;8.60;4.43;;;;;;;0.87;87.93;95830.63;6127340;23;20249;-81
2022/04/11 00:54:33;;;;;;;7.33;4.90;;;;;;;0.90;87.96;95834.78;6156377;23;20155;-83
2022/04/11 00:56:59;;;;;;;7.57;4.57;;;;;;;1.02;86.93;95834.09;6129872;23;20194;-83
2022/04/11 00:59:24;;;;;;;6.13;4.60;;;;;;;1.01;86.77;95829.91;6130306;23;20230;-84
2022/04/11 01:01:50;;;;;;;7.07;5.17;;;;;;;1.04;86.22;95828.00;6128980;23;20159;-84
2022/04/11 01:04:24;;;;;;;5.80;4.70;;;;;;;1.16;85.75;95828.25;6129314;23;20159;-82
2022/04/11 01:06:50;;;;;;;7.43;4.80;;;;;;;1.19;85.64;95834.00;6131112;23;20667;-82
2022/04/11 01:09:16;;;;;;;6.93;4.67;;;;;;;1.19;85.79;95833.19;6155004;23;20156;-83
2022/04/11 01:11:41;;;;;;;5.63;4.80;;;;;;;1.20;85.55;95843.34;6129082;23;20162;-81
2022/04/11 01:14:06;;;;;;;6.47;4.50;;;;;;;1.17;85.18;95830.72;6129916;23;20163;-82
2022/04/11 01:16:32;;;;;;;5.53;4.50;;;;;;;1.13;85.81;95826.66;6129448;23;20222;-82
2022/04/11 01:18:57;;;;;;;4.53;4.13;;;;;;;1.18;85.28;95826.44;6130170;23;20163;-83
2022/04/11 01:21:27;;;;;;;7.33;5.00;;;;;;;1.13;85.28;95819.00;6129264;23;20214;-83
2022/04/11 01:23:52;;;;;;;6.33;4.30;;;;;;;1.15;85.06;95822.31;6130045;23;20166;-83
2022/04/11 01:26:20;;;;;;;6.37;4.90;;;;;;;1.17;84.99;95824.78;6129841;23;20637;-83
2022/04/11 01:28:46;;;;;;;5.57;5.00;;;;;;;1.08;85.45;95826.94;6154203;23;20167;-82
2022/04/11 01:31:12;;;;;;;7.47;4.90;;;;;;;1.07;85.16;95819.34;6128547;23;20233;-84
2022/04/11 01:33:37;;;;;;;7.60;4.87;;;;;;;1.07;85.64;95816.78;6130007;23;20222;-84
2022/04/11 01:36:02;;;;;;;5.37;4.47;;;;;;;1.05;86.18;95821.97;6129720;23;20178;-84
2022/04/11 01:38:28;;;;;;;6.43;4.27;;;;;;;1.05;85.70;95816.03;6129304;23;20685;-82
2022/04/11 01:40:54;;;;;;;7.73;4.93;;;;;;;1.27;84.57;95811.41;6129359;23;20163;-82
2022/04/11 01:43:20;;;;;;;7.73;4.80;;;;;;;1.18;84.85;95806.78;6129128;23;20186;-84
2022/04/11 01:45:45;;;;;;;7.90;4.97;;;;;;;1.27;84.72;95805.44;6129153;23;20183;-83
2022/04/11 01:48:10;;;;;;;8.83;4.70;;;;;;;1.33;84.62;95800.00;6129716;23;20155;-81
2022/04/11 01:50:36;;;;;;;10.20;5.30;;;;;;;1.29;84.91;95804.44;6129498;23;20155;-83
2022/04/11 01:53:15;;;;;;;11.60;5.07;;;;;;;1.42;83.47;95799.50;6126958;23;20205;-84
2022/04/11 01:55:40;;;;;;;7.30;4.50;;;;;;;1.39;83.87;95791.97;6129195;23;20174;-81
2022/04/11 01:58:06;;;;;;;7.33;5.10;;;;;;;1.41;83.70;95785.03;6129491;23;20179;-83
2022/04/11 02:00:34;;;;;;;8.07;5.23;;;;;;;1.47;83.89;95792.38;6129389;23;20163;-82
2022/04/11 02:02:59;;;;;;;10.70;5.07;;;;;;;1.45;83.41;95790.81;6128431;23;20598;-82
2022/04/11 02:05:26;;;;;;;8.70;5.47;;;;;;;1.37;84.07;95786.94;6128833;23;20163;-82
2022/04/11 02:07:51;;;;;;;9.30;5.60;;;;;;;1.39;83.81;95781.72;6129359;23;20190;-84
2022/04/11 02:10:17;;;;;;;7.57;5.10;;;;;;;1.18;85.15;95783.75;6153738;23;20166;-82
2022/04/11 02:12:42;;;;;;;7.17;5.07;;;;;;;1.42;84.45;95776.47;6128410;23;20628;-83
2022/04/11 02:15:08;;;;;;;9.57;5.80;;;;;;;1.26;84.44;95779.03;6129154;23;20623;-82
2022/04/11 02:17:34;;;;;;;10.10;5.20;;;;;;;1.45;84.31;95772.91;6128703;23;20231;-82
2022/04/11 02:19:59;;;;;;;9.97;5.57;;;;;;;1.39;83.93;95768.94;6128647;23;20500;-82
2022/04/11 02:22:24;;;;;;;12.93;5.87;;;;;;;1.38;84.43;95768.13;6128064;23;20170;-82
2022/04/11 02:24:50;;;;;;;7.97;5.20;;;;;;;1.45;83.87;95760.91;6129031;23;20162;-81
2022/04/11 02:27:15;;;;;;;6.77;4.97;;;;;;;1.44;83.87;95761.00;6104218;23;20199;-82
2022/04/11 02:29:40;;;;;;;8.63;5.57;;;;;;;1.42;83.89;95759.38;6104471;23;20182;-83
2022/04/11 02:32:06;;;;;;;6.90;5.37;;;;;;;1.28;84.19;95750.81;6128431;23;20163;-83
2022/04/11 02:34:31;;;;;;;8.37;5.23;;;;;;;1.07;86.43;95753.66;6128550;23;20247;-81
2022/04/11 02:36:57;;;;;;;6.17;4.97;;;;;;;1.01;86.13;95738.66;6128855;23;20170;-82
2022/04/11 02:39:22;;;;;;;11.17;5.33;;;;;;;1.01;86.16;95741.22;6129011;23;20148;-82
2022/04/11 02:41:47;;;;;;;6.10;4.77;;;;;;;0.98;86.83;95725.22;6127974;23;20598;-84
2022/04/11 02:44:13;;;;;;;7.03;5.23;;;;;;;0.91;87.06;95724.72;6129032;23;20159;-84
2022/04/11 02:46:38;;;;;;;6.40;5.20;;;;;;;0.92;87.30;95734.06;6128841;23;20195;-83
2022/04/11 02:49:04;;;;;;;8.77;5.17;;;;;;;0.99;86.81;95729.44;6128534;23;20164;-82
2022/04/11 02:51:29;;;;;;;9.43;5.47;;;;;;;0.97;86.97;95732.06;6126492;23;20186;-81
2022/04/11 02:53:54;;;;;;;6.50;5.20;;;;;;;0.97;87.14;95734.63;6128901;23;20155;-82
2022/04/11 02:56:20;;;;;;;10.27;5.70;;;;;;;1.01;86.68;95727.59;6128493;23;20183;-82
2022/04/11 02:58:45;;;;;;;8.13;5.60;;;;;;;0.92;86.89;95723.00;6128719;23;20147;-83
2022/04/11 03:01:10;;;;;;;7.63;5.77;;;;;;;0.92;86.95;95716.16;6128968;23;20615;-83
2022/04/11 03:03:37;;;;;;;8.23;5.63;;;;;;;0.90;86.72;95712.88;6128090;23;20171;-83
2022/04/11 03:06:03;;;;;;;6.63;5.53;;;;;;;0.95;86.67;95712.59;6128648;23;20179;-82
2022/04/11 03:08:28;;;;;;;11.00;5.73;;;;;;;0.91;86.63;95717.06;6128485;23;20155;-83
2022/04/11 03:10:54;;;;;;;8.50;6.10;;;;;;;0.85;87.06;95705.44;6128934;23;20655;-82
2022/04/11 03:13:20;;;;;;;8.00;6.00;;;;;;;0.79;87.65;95708.31;6128293;23;20205;-84
2022/04/11 03:15:45;;;;;;;10.73;5.60;;;;;;;0.86;87.25;95708.81;6128937;23;20590;-84
2022/04/11 03:18:10;;;;;;;7.77;5.83;;;;;;;0.88;87.27;95706.16;6128337;23;20186;-83
2022/04/11 03:20:35;;;;;;;6.67;5.50;;;;;;;0.77;87.57;95705.03;6152913;23;20210;-84
2022/04/11 03:23:01;;;;;;;8.00;5.73;;;;;;;0.79;87.37;95704.94;6127741;23;20159;-81
2022/04/11 03:25:26;;;;;;;10.00;6.00;;;;;;;0.66;88.37;95704.81;6154827;23;20596;-84
2022/04/11 03:27:51;;;;;;;8.50;6.63;;;;;;;0.71;87.82;95700.28;6127954;23;20198;-82
2022/04/11 03:30:17;;;;;;;10.20;6.67;;;;;;;0.63;88.12;95697.31;6155044;23;20178;-82
2022/04/11 03:32:42;;;;;;;12.40;8.77;;;;;;;0.67;88.41;95693.66;6127773;23;20156;-82
2022/04/11 03:35:09;;;;;;;8.13;6.93;;;;;;;0.60;88.26;95696.63;6128442;23;20472;-81
2022/04/11 03:37:35;;;;;;;10.73;6.77;;;;;;;0.62;88.43;95693.09;6103866;23;20251;-83
2022/04/11 03:40:00;;;;;;;11.77;7.87;;;;;;;0.51;88.92;95691.13;6128659;23;20201;-82
2022/04/11 03:42:25;;;;;;;14.50;10.63;;;;;;;0.90;87.49;95694.16;6127998;23;20159;-81
2022/04/11 03:44:51;;;;;;;14.00;10.77;;;;;;;0.97;86.84;95703.94;6128054;23;20155;-82
2022/04/11 03:47:16;;;;;;;12.80;9.27;;;;;;;0.67;87.92;95703.06;6127608;23;20480;-83
2022/04/11 03:49:41;;;;;;;10.93;7.90;;;;;;;0.93;86.52;95693.97;6128397;23;20556;-82
2022/04/11 03:52:07;;;;;;;8.87;7.10;;;;;;;0.74;87.09;95694.16;6126127;23;20159;-83
2022/04/11 03:54:32;;;;;;;10.97;6.23;;;;;;;0.96;86.19;95679.25;6155395;23;20590;-82
2022/04/11 03:56:57;;;;;;;9.67;6.60;;;;;;;0.76;87.00;95674.44;6130159;23;20235;-81
2022/04/11 03:59:23;;;;;;;9.07;6.37;;;;;;;0.83;86.21;95679.13;6130298;23;20162;-81
2022/04/11 04:01:48;;;;;;;7.57;6.37;;;;;;;0.88;86.39;95672.94;6129131;23;20602;-81
2022/04/11 04:04:13;;;;;;;8.63;6.27;;;;;;;0.95;86.07;95676.78;6129986;23;20190;-83
2022/04/11 04:06:39;;;;;;;9.30;6.03;;;;;;;0.92;86.01;95671.88;6130364;23;20671;-83
2022/04/11 04:09:04;;;;;;;9.07;6.47;;;;;;;0.91;85.42;95675.34;6130023;23;20185;-82
2022/04/11 04:11:29;;;;;;;6.53;5.77;;;;;;;0.88;86.11;95665.25;6129760;23;20201;-81
2022/04/11 04:13:54;;;;;;;9.07;6.30;;;;;;;0.84;85.79;95675.66;6130088;23;20162;-81
2022/04/11 04:16:20;;;;;;;7.93;5.93;;;;;;;0.81;86.04;95680.97;6130238;23;20175;-81
2022/04/11 04:18:45;;;;;;;10.27;6.83;;;;;;;0.81;86.13;95680.13;6156533;23;20612;-83
2022/04/11 04:21:10;;;;;;;12.67;8.87;;;;;;;0.68;86.63;95685.09;6129891;23;20152;-81
2022/04/11 04:23:36;;;;;;;14.63;9.40;;;;;;;0.70;86.94;95688.38;6128804;23;20155;-83
2022/04/11 04:26:01;;;;;;;8.17;7.37;;;;;;;0.62;87.31;95687.16;6130014;23;20725;-81
2022/04/11 04:28:26;;;;;;;11.20;6.83;;;;;;;0.67;87.26;95692.84;6129773;23;20163;-81
2022/04/11 04:30:51;;;;;;;10.27;6.97;;;;;;;0.64;87.33;95690.47;6130428;23;20173;-81
2022/04/11 04:33:17;;;;;;;10.57;6.97;;;;;;;0.66;87.29;95681.78;6129514;23;20157;-83
2022/04/11 04:35:42;;;;;;;11.97;7.47;;;;;;;0.72;86.78;95688.31;6129645;23;20665;-83
2022/04/11 04:38:08;;;;;;;8.00;7.00;;;;;;;0.73;86.86;95687.41;6129784;23;20238;-82
2022/04/11 04:40:33;;;;;;;8.17;6.83;;;;;;;0.66;86.55;95686.09;6129978;23;20162;-83
2022/04/11 04:42:59;;;;;;;8.27;7.43;;;;;;;0.62;87.20;95693.09;6129112;23;20155;-81
2022/04/11 04:45:24;;;;;;;10.47;8.00;;;;;;;0.62;87.13;95685.44;6130035;23;20161;-80
2022/04/11 04:47:49;;;;;;;8.77;6.90;;;;;;;0.56;87.07;95683.22;6128469;23;20183;-82
2022/04/11 04:50:15;;;;;;;10.73;7.47;;;;;;;0.21;89.16;95680.81;6130262;23;20167;-81
2022/04/11 04:52:40;;;;;;;10.10;7.20;;;;;;;0.45;88.11;95683.81;6104277;23;20158;-81
2022/04/11 04:55:07;;;;;;;8.30;7.33;;;;;;;0.41;88.37;95681.47;6155576;23;20152;-81
2022/04/11 04:57:32;;;;;;;9.27;6.63;;;;;;;0.37;88.04;95677.47;6129610;23;20174;-82
2022/04/11 04:59:58;;;;;;;10.80;6.90;;;;;;;0.40;88.18;95682.41;6154648;23;20537;-82
2022/04/11 05:02:23;;;;;;;10.10;6.97;;;;;;;0.44;88.41;95673.63;6148099;23;20167;-81
2022/04/11 05:04:48;;;;;;;8.90;6.87;;;;;;;0.47;87.89;95673.50;6128486;23;20166;-82
2022/04/11 05:07:14;;;;;;;9.63;7.00;;;;;;;0.34;88.62;95677.59;6127991;23;20187;-81
2022/04/11 05:09:39;;;;;;;10.03;7.10;;;;;;;0.45;87.94;95670.22;6128721;23;20163;-82
2022/04/11 05:12:05;;;;;;;9.27;6.60;;;;;;;0.42;88.24;95672.91;6128065;23;20163;-82
2022/04/11 05:14:30;;;;;;;10.77;6.67;;;;;;;0.43;87.99;95665.16;6104260;23;20482;-80
2022/04/11 05:16:55;;;;;;;9.10;6.00;;;;;;;0.69;86.94;95662.91;6128358;23;20183;-80
2022/04/11 05:19:21;;;;;;;8.87;6.77;;;;;;;0.66;86.91;95661.34;6128521;23;20589;-81
2022/04/11 05:21:46;;;;;;;8.30;6.53;;;;;;;0.74;87.25;95663.47;6128056;23;20172;-80
2022/04/11 05:24:11;;;;;;;8.80;7.00;;;;;;;0.67;86.94;95664.72;6128204;23;20258;-83
2022/04/11 05:26:36;;;;;;;8.87;6.73;;;;;;;0.94;85.92;95664.91;6128924;23;20198;-83
2022/04/11 05:29:03;;;;;;;12.17;7.00;;;;;;;1.07;85.64;95660.78;6127164;23;20174;-81
2022/04/11 05:31:29;;;;;;;9.43;6.47;;;;;;;1.15;85.40;95658.59;6128121;23;20151;-82
2022/04/11 05:33:54;;;;;;;10.40;6.13;;;;;;;1.28;84.79;95662.09;6128442;23;20159;-81
2022/04/11 05:36:19;;;;;;;7.53;6.67;;;;;;;1.34;84.58;95660.94;6128213;23;20272;-84
2022/04/11 05:38:45;;;;;;;9.80;7.33;;;;;;;1.42;84.19;95659.56;6129875;23;20156;-81
2022/04/11 05:41:11;;;;;;;7.43;6.27;;;;;;;1.41;84.20;95665.59;6130266;23;20173;-82
2022/04/11 05:43:36;;;;;;;8.07;6.77;;;;;;;1.55;83.89;95671.63;6129597;23;20162;-81
2022/04/11 05:46:02;;;;;;;9.13;6.80;;;;;;;1.55;83.98;95669.91;6128976;23;20191;-81
2022/04/11 05:48:30;;;;;;;9.87;7.27;;;;;;;1.56;83.99;95670.72;6130079;23;20166;-83
2022/04/11 05:50:57;;;;;;;8.67;6.63;;;;;;;1.63;83.56;95672.84;6156064;23;20245;-81
2022/04/11 05:53:22;;;;;;;9.73;6.37;;;;;;;1.68;83.10;95673.41;6130341;23;20845;-82
2022/04/11 05:55:47;;;;;;;10.07;6.50;;;;;;;1.75;82.88;95678.97;6130761;23;20156;-80
2022/04/11 05:58:13;;;;;;;8.03;6.13;;;;;;;1.85;82.66;95674.09;6129101;23;20159;-82
2022/04/11 06:00:38;;;;;;;12.53;6.43;;;;;;;1.84;82.46;95675.84;6129039;23;20508;-81
2022/04/11 06:03:03;;;;;;;7.43;6.17;;;;;;;1.98;82.52;95669.91;6127692;23;20241;-82
2022/04/11 06:05:28;;;;;;;8.57;6.67;;;;;;;2.02;82.01;95670.53;6128683;23;20155;-80
2022/04/11 06:07:54;;;;;;;10.17;6.47;;;;;;;2.16;81.81;95675.66;6129065;23;20641;-82
2022/04/11 06:10:19;;;;;;;10.73;6.30;;;;;;;2.20;81.60;95675.38;6129980;23;20170;-80
2022/04/11 06:12:44;;;;;;;9.10;6.80;;;;;;;2.26;80.63;95679.31;6127102;23;20163;-81
2022/04/11 06:15:11;;;;;;;7.07;5.67;;;;;;;2.40;80.43;95666.47;6128408;23;20143;-82
2022/04/11 06:17:37;;;;;;;9.30;6.53;;;;;;;2.36;80.89;95675.25;6129085;23;20175;-80
2022/04/11 06:20:02;;;;;;;8.20;6.47;;;;;;;2.53;80.35;95675.03;6127915;23;20598;-82
2022/04/11 06:22:28;;;;;;;7.73;6.47;;;;;;;2.64;79.89;95673.53;6126822;23;20163;-82
2022/04/11 06:25:00;;;;;;;8.73;6.17;;;;;;;2.75;79.01;95671.97;6126937;23;20162;-83
2022/04/11 06:27:27;;;;;;;9.63;6.27;;;;;;;2.80;78.75;95671.66;6151247;23;20218;-79
2022/04/11 06:29:56;;;;;;;7.90;6.00;;;;;;;2.88;78.36;95676.28;6128876;23;20143;-81
2022/04/11 06:32:28;;;;;;;8.40;6.60;;;;;;;2.93;78.16;95677.66;6128218;23;20221;-80
2022/04/11 06:34:54;;;;;;;13.30;6.33;;;;;;;3.01;78.03;95677.16;6127472;23;20598;-80
2022/04/11 06:37:21;;;;;;;7.33;5.30;;;;;;;3.06;78.08;95672.56;6127356;23;20194;-82
2022/04/11 06:39:46;;;;;;;9.53;6.43;;;;;;;3.06;76.47;95664.84;6128921;23;20594;-81
2022/04/11 06:42:11;;;;;;;8.60;5.57;;;;;;;3.17;77.40;95664.16;6127039;23;20159;-79
2022/04/11 06:44:38;;;;;;;6.87;5.97;;;;;;;3.26;76.41;95660.97;6127492;23;20213;-81
2022/04/11 06:47:04;;;;;;;8.13;5.43;;;;;;;3.34;76.20;95669.00;6127508;23;20195;-81
2022/04/11 06:49:29;;;;;;;6.77;4.40;;;;;;;3.41;75.39;95665.13;6105271;23;20186;-82
2022/04/11 06:51:55;;;;;;;6.73;5.03;;;;;;;3.44;76.11;95664.09;6128694;23;20155;-84
2022/04/11 06:54:20;;;;;;;7.90;5.40;;;;;;;3.56;74.54;95666.69;6128469;23;20156;-84
2022/04/11 06:56:45;;;;;;;6.40;5.23;;;;;;;3.62;73.63;95673.13;6128936;23;20174;-86
2022/04/11 06:59:11;;;;;;;7.00;4.67;;;;;;;3.67;73.17;95668.53;6130241;23;20359;-84
2022/04/11 07:01:36;;;;;;;7.67;4.83;;;;;;;3.76;73.58;95667.91;6127612;23;20163;-81
2022/04/11 07:04:01;;;;;;;7.20;4.57;;;;;;;3.80;73.27;95665.94;6127371;23;20438;-79
2022/04/11 07:06:27;;;;;;;6.03;4.67;;;;;;;3.91;72.08;95676.34;6153292;23;20192;-81
2022/04/11 07:08:52;;;;;;;5.90;4.93;;;;;;;3.98;71.81;95680.97;6127431;23;20163;-80
2022/04/11 07:11:17;;;;;;;8.90;4.50;;;;;;;3.80;72.08;95666.78;6158373;23;20140;-79
2022/04/11 07:13:43;;;;;;;4.93;4.33;;;;;;;3.93;71.86;95669.34;6127430;23;20221;-80
2022/04/11 07:16:08;;;;;;;5.13;4.03;;;;;;;4.01;71.80;95669.66;6127649;23;20613;-79
2022/04/11 07:18:35;;;;;;;5.43;4.00;;;;;;;4.01;71.34;95661.94;6151313;23;20664;-80
2022/04/11 07:21:01;;;;;;;6.90;3.80;;;;;;;4.16;71.88;95662.66;6127486;23;20163;-79
2022/04/11 07:23:26;;;;;;;7.40;4.43;;;;;;;4.31;71.83;95668.44;6126702;23;20198;-80
2022/04/11 07:25:51;;;;;;;5.13;3.53;;;;;;;4.49;70.39;95664.59;6151560;23;20222;-80
2022/04/11 07:28:17;;;;;;;4.77;4.00;;;;;;;4.65;70.83;95670.31;6126120;23;20257;-80
2022/04/11 07:30:42;;;;;;;5.43;3.83;;;;;;;4.86;68.95;95672.28;6132676;23;20180;-80
2022/04/11 07:33:08;;;;;;;7.70;3.80;;;;;;;5.16;68.83;95669.25;6154465;23;20170;-81
2022/04/11 07:35:34;;;;;;;5.03;3.80;;;;;;;5.30;65.62;95679.38;6129539;23;20185;-81
2022/04/11 07:38:00;;;;;;;5.03;3.30;;;;;;;5.34;64.96;95673.88;6129192;23;20175;-81
2022/04/11 07:40:26;;;;;;;5.13;3.20;;;;;;;5.40;64.76;95677.78;6129134;23;20857;-82
2022/04/11 07:42:52;;;;;;;4.07;3.40;;;;;;;5.57;64.55;95684.25;6128618;23;20505;-80
2022/04/11 07:45:18;;;;;;;4.23;3.20;;;;;;;5.71;63.31;95686.63;6128539;23;20162;-81
2022/04/11 07:47:44;;;;;;;6.83;3.30;;;;;;;5.86;62.88;95688.06;6153401;23;20198;-82
2022/04/11 07:50:09;;;;;;;5.03;2.60;;;;;;;6.01;62.05;95691.28;6104815;23;20165;-82
2022/04/11 07:52:38;;;;;;;3.87;2.90;;;;;;;6.17;61.90;95693.47;6128213;23;20230;-82
2022/04/11 07:55:04;;;;;;;3.27;2.97;;;;;;;6.11;61.31;95696.56;6128560;23;20163;-81
2022/04/11 07:57:30;;;;;;;4.00;2.83;;;;;;;6.15;60.83;95695.38;6153169;23;20243;-81
2022/04/11 07:59:55;;;;;;;4.23;2.97;;;;;;;6.35;61.28;95697.22;6127816;23;20195;-81
2022/04/11 08:02:26;;;;;;;3.83;2.90;;;;;;;6.46;59.65;95697.25;6128301;23;20146;-82
2022/04/11 08:04:54;;;;;;;3.20;2.87;;;;;;;6.63;60.75;95685.63;6128122;23;20162;-81
2022/04/11 08:07:20;;;;;;;4.97;3.17;;;;;;;6.66;59.53;95680.22;6128790;23;20191;-81
2022/04/11 08:09:46;;;;;;;3.63;3.00;;;;;;;6.79;59.06;95690.38;6104505;23;20700;-83
2022/04/11 08:12:11;;;;;;;3.47;2.90;;;;;;;6.77;59.45;95682.75;6127980;23;20156;-83
2022/04/11 08:14:36;;;;;;;5.20;3.40;;;;;;;6.86;59.51;95688.94;6127518;23;20166;-83
2022/04/11 08:17:03;;;;;;;5.47;3.43;;;;;;;6.93;57.71;95689.28;6128692;23;20181;-81
2022/04/11 08:19:29;;;;;;;3.50;3.20;;;;;;;7.07;58.35;95692.44;6105080;23;20159;-82
2022/04/11 08:21:54;;;;;;;5.37;3.27;;;;;;;6.98;58.34;95690.56;6128534;23;20183;-82
2022/04/11 08:24:20;;;;;;;4.30;3.37;;;;;;;7.18;56.50;95690.75;6129355;23;20163;-82
2022/04/11 08:26:45;;;;;;;6.23;3.33;;;;;;;7.26;58.50;95693.53;6128998;23;20532;-83
2022/04/11 08:29:10;;;;;;;4.57;3.70;;;;;;;7.43;57.26;95689.59;6129236;23;20196;-81
2022/04/11 08:31:36;;;;;;;5.20;4.17;;;;;;;7.54;57.50;95690.34;6128256;23;20162;-81
2022/04/11 08:34:01;;;;;;;4.37;3.50;;;;;;;7.49;57.61;95682.13;6129021;23;20609;-81
2022/04/11 08:36:26;;;;;;;5.97;3.70;;;;;;;7.66;57.11;95691.09;6128389;23;20180;-82
2022/04/11 08:38:52;;;;;;;5.53;3.60;;;;;;;7.63;55.46;95692.16;6128792;23;20163;-82
2022/04/11 08:41:19;;;;;;;4.47;3.43;;;;;;;7.73;56.54;95691.41;6128389;23;20189;-81
2022/04/11 08:43:45;;;;;;;5.80;3.57;;;;;;;7.91;57.11;95682.13;6128900;23;20598;-83
2022/04/11 08:46:13;;;;;;;3.77;3.40;;;;;;;8.05;56.02;95686.97;6104310;23;20187;-81
2022/04/11 08:48:39;;;;;;;5.13;3.23;;;;;;;8.20;56.11;95677.09;6104534;23;20219;-82
2022/04/11 08:51:04;;;;;;;4.20;3.17;;;;;;;8.27;54.73;95674.81;6128965;23;20163;-81
2022/04/11 08:53:30;;;;;;;3.60;3.10;;;;;;;8.44;54.98;95672.44;6128064;23;20185;-82
2022/04/11 08:55:55;;;;;;;5.17;3.40;;;;;;;8.40;53.09;95675.44;6128769;23;20166;-82
2022/04/11 08:58:20;;;;;;;5.93;3.20;;;;;;;8.13;54.02;95673.41;6128385;23;20501;-81
2022/04/11 09:00:46;;;;;;;4.83;3.13;;;;;;;8.48;54.04;95673.00;6126287;23;20221;-82
2022/04/11 09:03:11;;;;;;;4.33;3.13;;;;;;;8.41;53.08;95677.09;6126989;23;20585;-83
2022/04/11 09:05:36;;;;;;;4.37;3.20;;;;;;;8.66;52.68;95663.69;6127571;23;20151;-81
2022/04/11 09:08:02;;;;;;;5.53;3.53;;;;;;;8.71;53.32;95671.84;6152494;23;20188;-83
2022/04/11 09:10:35;;;;;;;3.93;3.40;;;;;;;8.73;52.79;95677.69;6127237;23;20214;-83
2022/04/11 09:13:05;;;;;;;3.93;3.03;;;;;;;8.67;52.82;95667.91;6102459;23;20202;-81
2022/04/11 09:15:41;;;;;;;3.30;3.00;;;;;;;8.78;52.65;95667.78;6128205;23;20254;-81
2022/04/11 09:18:06;;;;;;;4.37;3.03;;;;;;;9.02;53.55;95672.59;6128382;23;20175;-83
2022/04/11 09:20:32;;;;;;;4.93;3.60;;;;;;;8.95;52.88;95665.50;6127422;23;20155;-82
2022/04/11 09:22:58;;;;;;;4.73;2.83;;;;;;;9.27;51.88;95662.63;6126997;23;20293;-82
2022/04/11 09:25:28;;;;;;;3.97;3.00;;;;;;;9.51;52.39;95662.22;6103153;23;20608;-82
2022/04/11 09:28:08;;;;;;;4.67;3.50;;;;;;;9.56;51.03;95660.03;6128523;23;20199;-83
2022/04/11 09:30:34;;;;;;;4.17;3.53;;;;;;;9.61;50.72;95647.47;6103792;23;20246;-82
2022/04/11 09:33:02;;;;;;;5.47;2.97;;;;;;;9.73;51.01;95651.53;6126253;23;20197;-82
2022/04/11 09:35:30;;;;;;;3.80;2.97;;;;;;;9.49;48.81;95654.56;6127456;23;20155;-83
2022/04/11 09:38:08;;;;;;;3.47;2.90;;;;;;;9.42;48.99;95652.66;6152461;23;20172;-83
2022/04/11 09:40:57;;;;;;;4.77;2.73;;;;;;;9.48;49.22;95644.34;6154843;23;20171;-84
2022/04/11 09:43:33;;;;;;;5.93;2.97;;;;;;;9.63;50.70;95648.16;6115014;23;20163;-82
2022/04/11 09:46:00;;;;;;;4.80;2.83;;;;;;;9.65;49.79;95654.84;6128870;23;20179;-83
2022/04/11 09:48:37;;;;;;;9.57;4.07;;;;;;;9.77;51.26;95647.69;6153076;23;20156;-82
2022/04/11 09:51:08;;;;;;;3.77;2.67;;;;;;;9.96;47.82;95654.63;6152951;23;20142;-81
2022/04/11 09:53:34;;;;;;;6.47;3.33;;;;;;;9.98;49.16;95650.09;6128301;23;20202;-84
2022/04/11 09:56:08;;;;;;;6.20;3.53;;;;;;;10.02;49.08;95642.88;6152979;23;20230;-82
2022/04/11 09:58:34;;;;;;;4.30;3.30;;;;;;;10.20;49.28;95633.38;6106022;23;20648;-83
2022/04/11 10:01:01;;;;;;;4.13;3.20;;;;;;;10.16;47.95;95634.63;6104961;23;20562;-81
2022/04/11 10:03:27;;;;;;;3.20;2.57;;;;;;;10.24;48.46;95644.31;6104727;23;20155;-82
2022/04/11 10:05:53;;;;;;;4.07;2.60;;;;;;;10.24;49.23;95634.72;6128412;23;20211;-83
2022/04/11 10:08:20;;;;;;;5.10;2.90;;;;;;;10.36;47.39;95633.59;6129076;23;20166;-82
2022/04/11 10:10:45;;;;;;;3.93;2.87;;;;;;;10.25;46.07;95626.00;6104665;23;20159;-81
2022/04/11 10:13:13;;;;;;;5.00;2.50;;;;;;;10.27;46.04;95633.66;6123798;23;20189;-82
2022/04/11 10:15:40;;;;;;;4.17;2.43;;;;;;;10.54;48.05;95620.66;6104333;23;20470;-81
2022/04/11 10:18:07;;;;;;;3.83;2.63;;;;;;;10.73;46.97;95627.53;6104081;23;20179;-82
2022/04/11 10:20:37;;;;;;;3.17;2.37;;;;;;;10.74;45.67;95623.97;6128941;23;20242;-82
2022/04/11 10:23:39;;;;;;;3.53;2.20;;;;;;;10.55;44.77;95617.09;6103323;23;20163;-82
2022/04/11 10:26:15;;;;;;;3.80;2.50;;;;;;;10.79;45.62;95611.34;6097679;23;20665;-83
2022/04/11 10:28:48;;;;;;;3.57;2.40;;;;;;;10.92;44.95;95609.19;6128310;23;20194;-82
2022/04/11 10:31:15;;;;;;;3.73;2.77;;;;;;;11.10;45.36;95600.59;6103381;23;20174;-81
2022/04/11 10:33:47;;;;;;;4.73;2.47;;;;;;;11.00;44.87;95609.28;6109674;23;20209;-81
2022/04/11 10:36:35;;;;;;;3.90;2.40;;;;;;;11.28;44.49;95606.59;6152965;23;20183;-80
2022/04/11 10:39:13;;;;;;;3.47;2.23;;;;;;;11.19;44.05;95603.09;6128743;23;20152;-81
2022/04/11 10:41:56;;;;;;;3.00;2.63;;;;;;;11.10;42.34;95600.59;6152234;23;20194;-83
2022/04/11 10:44:35;;;;;;;3.70;2.20;;;;;;;10.83;44.49;95596.28;6152955;23;20159;-81
2022/04/11 10:47:09;;;;;;;5.60;2.43;;;;;;;10.92;44.25;95591.00;6125878;23;20201;-82
2022/04/11 10:49:50;;;;;;;6.37;2.83;;;;;;;10.62;42.99;95593.97;6154450;23;20159;-81
2022/04/11 10:52:38;;;;;;;2.90;2.17;;;;;;;10.92;42.88;95595.41;6152026;23;20163;-82
2022/04/11 10:55:04;;;;;;;5.03;2.73;;;;;;;11.01;44.69;95591.91;6153024;23;20163;-79
2022/04/11 10:57:35;;;;;;;4.30;2.50;;;;;;;10.97;42.20;95585.38;6153210;23;20174;-81
2022/04/11 11:00:08;;;;;;;2.73;2.30;;;;;;;11.19;43.18;95590.09;6154081;23;20155;-83
2022/04/11 11:03:01;;;;;;;26.43;4.40;;;;;;;11.35;42.31;95585.03;6153261;23;20201;-84
2022/04/11 11:05:37;;;;;;;5.13;2.50;;;;;;;11.55;40.82;95580.47;6154204;23;20195;-85
2022/04/11 11:08:12;;;;;;;2.73;2.20;;;;;;;11.29;40.29;95569.22;6154338;23;20183;-83
2022/04/11 11:10:49;;;;;;;4.33;2.50;;;;;;;11.52;43.00;95565.16;6151827;23;20550;-83
2022/04/11 11:13:36;;;;;;;4.17;2.70;;;;;;;11.71;42.47;95566.75;6102377;23;20162;-84
2022/04/11 11:16:07;;;;;;;4.00;2.60;;;;;;;11.52;40.96;95556.56;6127583;23;20159;-84
2022/04/11 11:18:51;;;;;;;3.97;2.57;;;;;;;11.53;40.94;95555.59;6151856;23;20167;-82
2022/04/11 11:21:19;;;;;;;4.07;2.37;;;;;;;11.53;39.15;95538.19;6151349;23;20166;-83
2022/04/11 11:26:45;;;;;;;3.50;2.30;;;;;;;11.42;40.50;95550.66;6154330;23;20223;-82
2022/04/11 11:29:22;;;;;;;3.97;2.30;;;;;;;11.44;39.70;95551.31;6127255;23;20165;-84
2022/04/11 11:31:52;;;;;;;4.17;2.30;;;;;;;11.80;40.36;95549.44;6128838;23;20163;-86
2022/04/11 11:34:20;;;;;;;7.10;2.70;;;;;;;11.91;41.06;95546.53;6103340;23;20234;-83
2022/04/11 11:36:45;;;;;;;3.47;2.37;;;;;;;12.00;39.92;95550.81;6127281;23;20180;-83
2022/04/11 11:39:22;;;;;;;6.50;2.70;;;;;;;12.15;41.35;95545.84;6128070;23;20170;-85
2022/04/11 11:41:52;;;;;;;4.50;2.40;;;;;;;12.07;38.30;95543.22;6102914;23;20223;-83